Time;durP1;ratioP1;P1;durP2;ratioP2;P2;SDS_P1;SDS_P2;PMS_P1;PMS_P2;Temp;Humidity;BMP_temperature;BMP_pressure;BME280_temperature;BME280_humidity;BME280_pressure;Samples;Min_cycle;Max_cycle;Signal;HPM_P1;HPM_P2
2023/07/08 00:02:16;;;;;;;7.30;6.70;;;16.30;99.90;;;;;;4989105;28;20603;-57
2023/07/08 00:04:45;;;;;;;8.07;7.33;;;16.20;99.90;;;;;;4988210;28;21222;-56
2023/07/08 00:07:17;;;;;;;8.20;7.50;;;16.20;99.90;;;;;;4990144;28;20494;-59
2023/07/08 00:09:45;;;;;;;7.87;7.27;;;16.10;99.90;;;;;;4992712;28;20483;-57
2023/07/08 00:12:13;;;;;;;7.90;7.30;;;16.10;99.90;;;;;;4988119;28;20608;-59
2023/07/08 00:14:42;;;;;;;8.20;7.50;;;16.10;99.90;;;;;;4985184;28;20556;-59
2023/07/08 00:17:12;;;;;;;8.10;7.40;;;16.00;99.90;;;;;;4989586;28;20595;-57
2023/07/08 00:19:41;;;;;;;8.63;7.83;;;16.00;99.90;;;;;;4992483;28;20503;-58
2023/07/08 00:22:13;;;;;;;8.20;7.67;;;16.00;99.90;;;;;;4995791;28;20555;-58
2023/07/08 00:24:43;;;;;;;8.73;8.00;;;15.90;99.90;;;;;;4993906;28;20848;-57
2023/07/08 00:27:13;;;;;;;7.83;7.33;;;15.90;99.90;;;;;;4991717;28;21772;-59
2023/07/08 00:29:42;;;;;;;8.80;8.07;;;15.90;99.90;;;;;;4997605;28;20476;-57
2023/07/08 00:32:13;;;;;;;8.97;8.17;;;15.80;99.90;;;;;;4995750;28;20498;-57
2023/07/08 00:34:42;;;;;;;8.43;7.80;;;15.70;99.90;;;;;;4989107;28;20473;-57
2023/07/08 00:37:12;;;;;;;8.20;7.60;;;15.70;99.90;;;;;;4995871;28;20781;-59
2023/07/08 00:39:41;;;;;;;8.30;7.60;;;15.70;99.90;;;;;;4995753;28;20563;-57
2023/07/08 00:42:18;;;;;;;10.00;8.27;;;15.70;99.90;;;;;;4995163;28;20484;-58
2023/07/08 00:44:49;;;;;;;8.70;7.97;;;15.60;99.90;;;;;;4998522;28;20518;-59
2023/07/08 00:47:17;;;;;;;9.07;8.30;;;15.50;99.90;;;;;;4997238;28;20574;-58
2023/07/08 00:49:50;;;;;;;8.37;7.67;;;15.50;99.90;;;;;;4994184;28;20464;-59
2023/07/08 00:52:21;;;;;;;8.83;8.20;;;15.50;99.90;;;;;;4996532;28;20498;-58
2023/07/08 00:54:50;;;;;;;8.63;7.93;;;15.40;99.90;;;;;;4996040;28;20563;-57
2023/07/08 00:57:19;;;;;;;8.47;7.77;;;15.40;99.90;;;;;;4990651;28;20594;-59
2023/07/08 00:59:54;;;;;;;9.43;8.73;;;15.40;99.90;;;;;;4991913;28;20588;-58
2023/07/08 01:02:24;;;;;;;9.33;8.53;;;15.30;99.90;;;;;;4987853;28;21482;-60
2023/07/08 01:04:57;;;;;;;8.80;8.20;;;15.30;99.90;;;;;;4986955;28;20578;-57
2023/07/08 01:07:26;;;;;;;9.30;8.60;;;15.30;99.90;;;;;;4989413;28;20496;-58
2023/07/08 01:09:59;;;;;;;9.63;8.83;;;15.30;99.90;;;;;;4990340;28;21063;-57
2023/07/08 01:12:31;;;;;;;9.07;8.27;;;15.30;99.90;;;;;;4990615;28;20586;-58
2023/07/08 01:15:03;;;;;;;9.17;8.37;;;15.20;99.90;;;;;;4986202;28;20559;-58
2023/07/08 01:17:32;;;;;;;9.77;8.97;;;15.20;99.90;;;;;;4986101;28;20587;-60
2023/07/08 01:20:04;;;;;;;8.40;7.70;;;15.20;99.90;;;;;;4993855;28;20550;-58
2023/07/08 01:22:35;;;;;;;8.80;8.20;;;15.10;99.90;;;;;;4992343;28;20488;-58
2023/07/08 01:25:05;;;;;;;8.60;7.77;;;15.10;99.90;;;;;;4995756;28;20472;-58
2023/07/08 01:27:35;;;;;;;9.10;8.40;;;15.10;99.90;;;;;;4994503;28;20502;-58
2023/07/08 01:30:05;;;;;;;8.87;8.17;;;15.00;99.90;;;;;;4995565;28;20565;-59
2023/07/08 01:32:36;;;;;;;9.00;8.23;;;15.00;99.90;;;;;;4999227;28;20571;-57
2023/07/08 01:35:06;;;;;;;9.07;8.47;;;15.00;99.90;;;;;;4993984;28;20481;-59
2023/07/08 01:37:40;;;;;;;9.40;8.70;;;15.00;99.90;;;;;;4997808;28;20607;-59
2023/07/08 01:40:26;;;;;;;8.83;8.13;;;14.90;99.90;;;;;;4997374;28;20551;-58
2023/07/08 01:42:55;;;;;;;10.93;9.93;;;14.90;99.90;;;;;;5001806;28;20574;-59
2023/07/08 01:45:26;;;;;;;10.47;9.57;;;14.80;99.90;;;;;;4998092;28;20472;-58
2023/07/08 01:47:57;;;;;;;9.50;8.80;;;14.80;99.90;;;;;;4996905;28;20572;-57
2023/07/08 01:50:26;;;;;;;9.97;9.13;;;14.80;99.90;;;;;;4999044;28;20477;-58
2023/07/08 01:53:00;;;;;;;8.60;7.90;;;14.80;99.90;;;;;;4996230;28;20497;-60
2023/07/08 01:55:30;;;;;;;9.13;8.43;;;14.80;99.90;;;;;;4997176;28;20576;-58
2023/07/08 01:57:58;;;;;;;9.63;8.93;;;14.80;99.90;;;;;;4988242;28;20480;-57
2023/07/08 02:00:26;;;;;;;8.90;8.20;;;14.70;99.90;;;;;;4990068;28;20468;-58
2023/07/08 02:02:54;;;;;;;8.83;8.23;;;14.70;99.90;;;;;;4983334;28;20488;-57
2023/07/08 02:05:23;;;;;;;9.40;8.60;;;14.60;99.90;;;;;;4993275;28;21499;-58
2023/07/08 02:07:51;;;;;;;9.70;9.00;;;14.70;99.90;;;;;;4992163;28;20611;-57
2023/07/08 02:10:20;;;;;;;9.80;9.10;;;14.60;99.90;;;;;;4993066;28;20468;-57
2023/07/08 02:12:48;;;;;;;9.80;9.00;;;14.50;99.90;;;;;;4992947;28;20615;-58
2023/07/08 02:15:16;;;;;;;10.10;9.30;;;14.50;99.90;;;;;;4990118;28;20512;-57
2023/07/08 02:17:44;;;;;;;10.00;9.10;;;14.50;99.90;;;;;;4989741;28;21968;-58
2023/07/08 02:20:12;;;;;;;9.57;8.70;;;14.50;99.90;;;;;;4995092;28;20475;-58
2023/07/08 02:22:40;;;;;;;9.37;8.67;;;14.50;99.90;;;;;;4994440;28;21079;-58
2023/07/08 02:25:09;;;;;;;9.80;9.10;;;14.50;99.90;;;;;;4995302;28;20472;-57
2023/07/08 02:27:39;;;;;;;9.90;9.10;;;14.40;99.90;;;;;;4992715;28;20567;-57
2023/07/08 02:30:08;;;;;;;9.03;8.30;;;14.40;99.90;;;;;;4987958;28;20482;-58
2023/07/08 02:32:38;;;;;;;10.00;8.90;;;14.40;99.90;;;;;;4989962;28;20501;-58
2023/07/08 02:35:08;;;;;;;9.30;8.50;;;14.30;99.90;;;;;;4985544;28;20473;-58
2023/07/08 02:37:36;;;;;;;10.03;9.23;;;14.30;99.90;;;;;;4995125;28;20488;-57
2023/07/08 02:40:06;;;;;;;10.43;9.60;;;14.30;99.90;;;;;;4991960;28;20960;-57
2023/07/08 02:42:34;;;;;;;10.30;9.50;;;14.30;99.90;;;;;;4992884;28;20493;-58
2023/07/08 02:45:03;;;;;;;10.10;9.30;;;14.20;99.90;;;;;;4991048;28;20468;-57
2023/07/08 02:47:31;;;;;;;9.50;8.77;;;14.20;99.90;;;;;;4993716;28;20476;-59
2023/07/08 02:49:59;;;;;;;10.27;9.33;;;14.10;99.90;;;;;;4989060;28;21091;-57
2023/07/08 02:52:28;;;;;;;9.43;8.43;;;14.20;99.90;;;;;;4991797;28;20529;-57
2023/07/08 02:54:55;;;;;;;9.40;8.70;;;14.10;99.90;;;;;;4997726;28;20551;-58
2023/07/08 02:57:23;;;;;;;10.67;9.87;;;14.10;99.90;;;;;;4989058;28;20550;-57
2023/07/08 02:59:51;;;;;;;9.67;8.87;;;14.10;99.90;;;;;;4988526;28;20469;-57
2023/07/08 03:02:22;;;;;;;9.83;9.03;;;14.10;99.90;;;;;;4990892;28;20484;-58
2023/07/08 03:04:50;;;;;;;9.57;8.93;;;14.10;99.90;;;;;;4988998;28;21225;-57
2023/07/08 03:07:18;;;;;;;10.03;9.17;;;14.10;99.90;;;;;;4990389;28;20523;-58
2023/07/08 03:09:46;;;;;;;10.00;9.20;;;14.00;99.90;;;;;;4991258;28;21043;-58
2023/07/08 03:12:14;;;;;;;9.70;8.90;;;14.00;99.90;;;;;;4989091;28;20496;-58
2023/07/08 03:14:42;;;;;;;10.03;9.13;;;14.00;99.90;;;;;;4988591;28;20465;-57
2023/07/08 03:17:10;;;;;;;9.87;9.03;;;14.00;99.90;;;;;;4992295;28;20914;-57
2023/07/08 03:19:41;;;;;;;9.30;8.70;;;13.90;99.90;;;;;;4991085;28;20529;-56
2023/07/08 03:22:09;;;;;;;9.40;8.70;;;13.90;99.90;;;;;;4994117;28;20473;-58
2023/07/08 03:24:45;;;;;;;9.43;8.73;;;13.90;99.90;;;;;;4997675;28;21189;-57
2023/07/08 03:27:14;;;;;;;9.57;8.77;;;13.90;99.90;;;;;;4998177;28;20499;-58
2023/07/08 03:29:43;;;;;;;10.00;9.20;;;13.90;99.90;;;;;;4997195;28;20487;-57
2023/07/08 03:32:12;;;;;;;9.93;9.13;;;13.90;99.90;;;;;;4999757;28;20492;-57
2023/07/08 03:34:42;;;;;;;10.33;9.57;;;13.90;99.90;;;;;;4995786;28;20475;-58
2023/07/08 03:37:10;;;;;;;9.53;8.87;;;14.00;99.90;;;;;;4996989;28;20575;-57
2023/07/08 03:39:38;;;;;;;9.70;8.90;;;13.90;99.90;;;;;;4999168;28;20468;-58
2023/07/08 03:42:07;;;;;;;10.23;9.43;;;14.00;99.90;;;;;;4999843;28;20584;-57
2023/07/08 03:44:35;;;;;;;9.50;8.70;;;14.00;99.90;;;;;;5000279;28;20547;-57
2023/07/08 03:47:03;;;;;;;9.23;8.50;;;14.00;99.90;;;;;;4998290;28;20496;-56
2023/07/08 03:49:34;;;;;;;9.50;8.70;;;14.00;99.90;;;;;;4999752;28;20492;-57
2023/07/08 03:52:03;;;;;;;10.67;9.57;;;14.00;99.90;;;;;;4999936;28;20571;-58
2023/07/08 03:54:31;;;;;;;10.20;9.40;;;14.00;99.90;;;;;;4994628;28;20550;-57
2023/07/08 03:56:59;;;;;;;9.87;9.17;;;14.00;99.90;;;;;;4995725;28;20869;-57
2023/07/08 03:59:27;;;;;;;9.20;8.30;;;14.00;99.90;;;;;;4993113;28;20889;-57
2023/07/08 04:01:55;;;;;;;9.43;8.63;;;14.00;99.90;;;;;;4990431;28;20560;-59
2023/07/08 04:04:24;;;;;;;9.67;8.90;;;14.00;99.90;;;;;;4992255;28;20520;-57
2023/07/08 04:06:53;;;;;;;9.37;8.67;;;14.10;99.90;;;;;;4995638;28;20492;-58
2023/07/08 04:09:22;;;;;;;9.13;8.43;;;14.10;99.90;;;;;;4995340;28;20474;-58
2023/07/08 04:11:50;;;;;;;9.50;8.80;;;14.10;99.90;;;;;;4990656;28;20465;-57
2023/07/08 04:14:18;;;;;;;9.00;8.30;;;14.10;99.90;;;;;;4991359;28;20488;-57
2023/07/08 04:16:51;;;;;;;9.80;9.00;;;14.20;99.90;;;;;;4992619;28;20476;-58
2023/07/08 04:19:19;;;;;;;8.87;8.17;;;14.20;99.90;;;;;;4991861;28;20969;-58
2023/07/08 04:21:47;;;;;;;8.50;7.83;;;14.30;99.90;;;;;;4994374;28;20542;-58
2023/07/08 04:24:18;;;;;;;9.00;8.30;;;14.30;99.90;;;;;;4999150;28;20566;-58
2023/07/08 04:26:49;;;;;;;8.80;8.20;;;14.30;99.90;;;;;;4994869;28;20908;-58
2023/07/08 04:29:19;;;;;;;9.07;8.30;;;14.40;99.90;;;;;;4987664;28;20497;-58
2023/07/08 04:31:47;;;;;;;8.47;7.77;;;14.40;99.90;;;;;;4994234;28;20563;-59
2023/07/08 04:34:16;;;;;;;8.80;8.10;;;14.50;99.90;;;;;;4988157;28;20496;-59
2023/07/08 04:36:45;;;;;;;8.60;7.87;;;14.50;99.90;;;;;;4986295;28;20497;-57
2023/07/08 04:39:14;;;;;;;8.90;8.10;;;14.60;99.90;;;;;;4989000;28;20535;-59
2023/07/08 04:41:43;;;;;;;8.90;8.30;;;14.60;99.90;;;;;;4986770;28;20915;-56
2023/07/08 04:44:13;;;;;;;7.93;7.30;;;14.70;99.90;;;;;;4985615;28;20488;-57
2023/07/08 04:46:45;;;;;;;8.70;8.03;;;14.70;99.90;;;;;;4985669;28;20476;-59
2023/07/08 04:49:14;;;;;;;8.00;7.40;;;14.80;99.90;;;;;;4992126;28;20473;-60
2023/07/08 04:51:42;;;;;;;8.97;8.20;;;14.90;99.90;;;;;;4997875;28;20477;-57
2023/07/08 04:54:11;;;;;;;7.80;7.10;;;15.00;99.90;;;;;;4998882;28;20502;-56
2023/07/08 04:56:41;;;;;;;7.10;6.43;;;15.10;99.90;;;;;;4999405;28;20595;-59
2023/07/08 04:59:10;;;;;;;7.20;6.70;;;15.20;99.90;;;;;;4995631;28;20530;-56
2023/07/08 05:01:40;;;;;;;7.47;6.87;;;15.30;99.90;;;;;;4993929;28;20566;-58
2023/07/08 05:04:10;;;;;;;7.10;6.53;;;15.40;99.90;;;;;;4990839;28;20930;-58
2023/07/08 05:06:38;;;;;;;7.07;6.53;;;15.50;99.90;;;;;;4991830;28;20488;-57
2023/07/08 05:09:06;;;;;;;7.53;6.93;;;15.60;99.90;;;;;;4995406;28;20645;-58
2023/07/08 05:11:35;;;;;;;6.60;6.10;;;15.80;99.90;;;;;;4995895;28;20864;-59
2023/07/08 05:14:04;;;;;;;6.73;6.33;;;15.90;99.90;;;;;;4995332;28;20586;-59
2023/07/08 05:16:35;;;;;;;6.47;5.77;;;16.00;99.90;;;;;;4999647;28;20471;-60
2023/07/08 05:19:05;;;;;;;5.67;5.20;;;16.10;99.90;;;;;;4989436;28;20500;-57
2023/07/08 05:21:34;;;;;;;6.60;6.00;;;16.20;99.90;;;;;;4996929;28;20572;-59
2023/07/08 05:24:03;;;;;;;6.40;5.90;;;16.30;99.90;;;;;;5002436;28;20567;-58
2023/07/08 05:26:32;;;;;;;6.47;5.90;;;16.40;99.90;;;;;;4995982;28;20480;-59
2023/07/08 05:29:00;;;;;;;6.20;5.70;;;16.50;99.90;;;;;;4994990;28;20464;-59
2023/07/08 05:31:29;;;;;;;6.70;6.00;;;16.50;99.90;;;;;;5002329;28;20564;-59
2023/07/08 05:33:59;;;;;;;6.63;5.93;;;16.70;99.90;;;;;;4996802;28;20554;-59
2023/07/08 05:36:29;;;;;;;5.43;5.03;;;16.80;99.90;;;;;;4999653;28;20469;-57
2023/07/08 05:38:58;;;;;;;5.90;5.40;;;16.80;99.90;;;;;;4994604;28;20568;-58
2023/07/08 05:41:26;;;;;;;6.33;5.80;;;17.00;99.90;;;;;;5001404;28;20472;-57
2023/07/08 05:43:54;;;;;;;5.90;5.40;;;17.10;99.90;;;;;;4996488;28;20516;-59
2023/07/08 05:46:22;;;;;;;7.20;5.93;;;17.10;99.90;;;;;;4998957;28;20469;-53
2023/07/08 05:48:50;;;;;;;5.83;5.33;;;17.20;99.90;;;;;;4998726;28;20538;-59
2023/07/08 05:51:19;;;;;;;5.90;5.03;;;17.30;99.90;;;;;;5002352;28;20507;-58
2023/07/08 05:53:48;;;;;;;5.77;5.37;;;17.40;99.90;;;;;;4992998;28;20580;-59
2023/07/08 05:56:16;;;;;;;6.70;5.60;;;17.50;99.90;;;;;;5003377;28;20464;-58
2023/07/08 05:58:44;;;;;;;5.23;4.83;;;17.60;99.90;;;;;;5000461;28;20484;-59
2023/07/08 06:01:12;;;;;;;6.03;5.53;;;17.60;99.90;;;;;;4992664;28;20486;-59
2023/07/08 06:03:40;;;;;;;5.57;5.13;;;17.70;99.90;;;;;;4989392;28;20481;-58
2023/07/08 06:06:09;;;;;;;5.73;5.23;;;17.90;99.90;;;;;;4992114;28;20474;-58
2023/07/08 06:08:37;;;;;;;5.90;5.30;;;18.00;99.90;;;;;;4987138;28;20488;-58
2023/07/08 06:11:06;;;;;;;5.73;5.13;;;18.10;99.90;;;;;;4995653;28;20550;-57
2023/07/08 06:13:34;;;;;;;5.50;5.00;;;18.20;99.90;;;;;;4981218;28;20583;-59
2023/07/08 06:16:02;;;;;;;4.80;4.40;;;18.30;99.90;;;;;;4992496;28;20531;-56
2023/07/08 06:18:30;;;;;;;4.53;4.23;;;18.50;99.90;;;;;;4993692;28;20476;-58
2023/07/08 06:20:59;;;;;;;5.90;4.80;;;18.50;99.90;;;;;;4987563;28;20975;-58
2023/07/08 06:23:27;;;;;;;5.20;4.80;;;18.60;99.90;;;;;;4992151;28;20547;-58
2023/07/08 06:25:56;;;;;;;5.00;4.60;;;18.70;99.90;;;;;;4998164;28;20468;-57
2023/07/08 06:28:25;;;;;;;5.80;5.30;;;18.80;99.90;;;;;;4998623;28;20612;-59
2023/07/08 06:30:53;;;;;;;5.13;4.60;;;18.90;99.90;;;;;;4996205;28;21151;-58
2023/07/08 06:33:21;;;;;;;5.20;4.70;;;19.00;99.90;;;;;;4997677;28;20485;-58
2023/07/08 06:35:49;;;;;;;5.43;4.93;;;19.00;99.90;;;;;;4982797;28;20587;-58
2023/07/08 06:38:17;;;;;;;4.90;4.50;;;19.10;99.90;;;;;;4987851;28;20604;-58
2023/07/08 06:40:45;;;;;;;5.13;4.63;;;19.20;99.90;;;;;;4988816;28;20907;-57
2023/07/08 06:43:13;;;;;;;4.97;4.60;;;19.40;99.90;;;;;;4988560;28;20502;-58
2023/07/08 06:45:44;;;;;;;5.70;5.20;;;19.50;99.90;;;;;;4979576;28;20469;-58
2023/07/08 06:48:12;;;;;;;6.37;4.70;;;19.60;99.90;;;;;;4982570;28;21087;-58
2023/07/08 06:50:43;;;;;;;5.63;5.13;;;19.70;99.90;;;;;;4986414;28;20475;-58
2023/07/08 06:53:11;;;;;;;4.67;4.37;;;19.80;99.90;;;;;;4997845;28;20495;-58
2023/07/08 06:55:40;;;;;;;4.67;4.27;;;19.80;99.90;;;;;;4992707;28;22543;-58
2023/07/08 06:58:08;;;;;;;5.00;4.60;;;19.90;99.90;;;;;;4993470;28;20562;-58
2023/07/08 07:00:36;;;;;;;4.37;4.07;;;20.00;99.90;;;;;;4980087;28;20468;-57
2023/07/08 07:03:05;;;;;;;5.40;5.00;;;20.00;99.90;;;;;;4994262;28;20546;-58
2023/07/08 07:05:33;;;;;;;4.40;4.10;;;20.20;99.90;;;;;;4983393;28;20472;-57
2023/07/08 07:08:01;;;;;;;4.87;4.30;;;20.30;99.90;;;;;;4952155;28;21361;-61
2023/07/08 07:10:29;;;;;;;4.80;4.30;;;20.30;99.90;;;;;;4972251;28;20500;-60
2023/07/08 07:12:57;;;;;;;4.63;4.23;;;20.40;99.90;;;;;;4975214;28;20498;-59
2023/07/08 07:15:25;;;;;;;4.63;4.33;;;20.50;99.90;;;;;;4983107;28;21104;-59
2023/07/08 07:17:53;;;;;;;4.93;3.93;;;20.60;99.90;;;;;;4967663;28;20576;-60
2023/07/08 07:20:23;;;;;;;4.60;4.20;;;20.60;99.90;;;;;;4978036;28;20479;-61
2023/07/08 07:22:52;;;;;;;4.43;4.13;;;20.70;99.90;;;;;;4984232;28;20887;-62
2023/07/08 07:25:20;;;;;;;4.80;4.40;;;20.80;99.90;;;;;;4979501;28;20472;-63
2023/07/08 07:27:48;;;;;;;4.70;4.20;;;20.90;99.90;;;;;;4976307;28;20484;-60
2023/07/08 07:30:17;;;;;;;4.70;4.40;;;21.00;99.90;;;;;;4994804;28;20476;-60
2023/07/08 07:32:45;;;;;;;3.90;3.60;;;21.10;99.90;;;;;;4994884;28;20484;-60
2023/07/08 07:35:14;;;;;;;4.57;4.17;;;21.20;99.90;;;;;;5000742;28;20488;-60
2023/07/08 07:37:44;;;;;;;5.83;4.37;;;21.30;99.90;;;;;;4996354;28;20567;-60
2023/07/08 07:40:15;;;;;;;4.63;4.27;;;21.40;99.90;;;;;;4997690;28;20554;-60
2023/07/08 07:42:45;;;;;;;3.97;3.77;;;21.50;99.90;;;;;;4997856;28;20875;-60
2023/07/08 07:45:14;;;;;;;4.53;4.20;;;21.50;99.90;;;;;;4997728;28;20539;-60
2023/07/08 07:47:42;;;;;;;4.77;4.37;;;21.70;99.90;;;;;;4993341;28;20485;-61
2023/07/08 07:50:10;;;;;;;4.53;4.17;;;21.70;99.90;;;;;;4998496;28;20477;-59
2023/07/08 07:52:38;;;;;;;4.97;4.50;;;21.80;99.90;;;;;;5000734;28;20488;-59
2023/07/08 07:55:09;;;;;;;3.97;3.60;;;21.90;99.90;;;;;;4996287;28;21293;-59
2023/07/08 07:57:37;;;;;;;4.20;4.00;;;22.00;99.90;;;;;;4990544;28;20484;-58
2023/07/08 08:00:06;;;;;;;5.13;4.73;;;22.00;99.90;;;;;;4986332;28;20465;-58
2023/07/08 08:02:34;;;;;;;5.07;4.50;;;22.10;99.90;;;;;;4995432;28;21100;-57
2023/07/08 08:05:02;;;;;;;4.87;4.40;;;22.20;99.90;;;;;;4988451;28;20532;-58
2023/07/08 08:07:30;;;;;;;4.53;4.23;;;22.20;99.90;;;;;;4988060;28;20486;-57
2023/07/08 08:09:58;;;;;;;4.00;3.70;;;22.30;99.90;;;;;;4987314;28;20501;-61
2023/07/08 08:12:28;;;;;;;4.40;4.10;;;22.40;99.90;;;;;;4992957;28;20531;-61
2023/07/08 08:15:08;;;;;;;4.50;4.10;;;22.40;99.90;;;;;;4986548;28;20492;-61
2023/07/08 08:17:36;;;;;;;4.13;3.83;;;22.50;99.90;;;;;;4990388;28;21091;-61
2023/07/08 08:20:05;;;;;;;4.47;4.17;;;22.70;99.90;;;;;;4995633;28;20499;-61
2023/07/08 08:22:35;;;;;;;4.00;3.80;;;22.80;99.90;;;;;;4990682;28;21044;-59
2023/07/08 08:25:03;;;;;;;6.10;4.03;;;22.80;99.90;;;;;;4989944;28;21033;-56
2023/07/08 08:27:33;;;;;;;4.33;3.93;;;22.90;99.90;;;;;;4993446;28;20500;-57
2023/07/08 08:30:01;;;;;;;4.10;3.80;;;23.00;99.90;;;;;;4994460;28;20478;-57
2023/07/08 08:32:29;;;;;;;4.50;4.10;;;23.10;99.90;;;;;;4992804;28;20581;-58
2023/07/08 08:34:57;;;;;;;3.97;3.67;;;23.20;99.90;;;;;;4995073;28;20546;-57
2023/07/08 08:37:28;;;;;;;4.23;3.93;;;23.20;99.90;;;;;;4994201;28;20527;-56
2023/07/08 08:39:56;;;;;;;3.67;3.40;;;23.30;99.90;;;;;;4993747;28;20987;-56
2023/07/08 08:42:28;;;;;;;4.47;4.17;;;23.40;99.90;;;;;;4985802;28;20506;-57
2023/07/08 08:45:00;;;;;;;4.13;3.93;;;23.40;99.90;;;;;;4993022;28;20509;-58
2023/07/08 08:47:35;;;;;;;4.30;3.90;;;23.50;99.90;;;;;;4994605;28;20493;-58
2023/07/08 08:50:14;;;;;;;4.63;3.80;;;23.60;99.90;;;;;;4987874;28;20805;-58
2023/07/08 08:52:43;;;;;;;3.93;3.63;;;23.70;99.90;;;;;;4995430;28;20678;-58
2023/07/08 08:55:13;;;;;;;4.47;4.07;;;23.80;99.90;;;;;;4988276;28;20575;-56
2023/07/08 08:57:50;;;;;;;4.00;3.70;;;23.80;99.90;;;;;;4990093;28;20491;-57
2023/07/08 09:00:25;;;;;;;3.87;3.67;;;24.00;99.90;;;;;;4989744;28;20563;-58
2023/07/08 09:03:00;;;;;;;4.40;4.10;;;24.00;99.90;;;;;;4985922;28;20499;-57
2023/07/08 09:05:28;;;;;;;6.00;5.50;;;24.10;99.90;;;;;;4996810;28;20558;-58
2023/07/08 09:08:04;;;;;;;5.40;5.00;;;24.20;99.90;;;;;;4998552;28;20584;-58
2023/07/08 09:10:44;;;;;;;5.10;4.70;;;24.20;99.90;;;;;;4998073;28;20588;-57
2023/07/08 09:13:20;;;;;;;6.00;4.50;;;24.30;99.90;;;;;;4993637;28;21021;-57
2023/07/08 09:15:57;;;;;;;5.10;4.13;;;24.40;99.90;;;;;;4986428;28;20494;-57
2023/07/08 09:18:32;;;;;;;4.57;4.17;;;24.40;99.90;;;;;;4983440;28;20487;-57
2023/07/08 09:21:06;;;;;;;4.10;3.80;;;24.60;99.90;;;;;;4985230;28;20786;-58
2023/07/08 09:23:37;;;;;;;4.57;4.23;;;24.60;99.90;;;;;;4991757;28;20521;-58
2023/07/08 09:26:12;;;;;;;3.50;3.30;;;24.60;99.90;;;;;;4997235;28;20492;-58
2023/07/08 09:28:43;;;;;;;3.90;3.70;;;24.70;99.90;;;;;;4990235;28;20575;-58
2023/07/08 09:31:22;;;;;;;4.80;4.50;;;24.90;99.90;;;;;;4989172;28;21043;-59
2023/07/08 09:33:52;;;;;;;4.23;3.93;;;25.00;99.90;;;;;;4993822;28;20502;-58
2023/07/08 09:36:24;;;;;;;4.43;3.77;;;25.10;99.90;;;;;;4993484;28;20578;-58
2023/07/08 09:38:52;;;;;;;5.27;4.77;;;25.20;99.90;;;;;;4994819;28;20483;-57
2023/07/08 09:41:32;;;;;;;13.83;4.73;;;25.20;99.90;;;;;;4990221;28;21009;-59
2023/07/08 09:44:14;;;;;;;6.37;5.77;;;25.30;99.90;;;;;;4988142;28;20523;-58
2023/07/08 09:46:44;;;;;;;7.80;7.00;;;25.30;99.90;;;;;;4991484;28;20578;-58
2023/07/08 09:49:25;;;;;;;5.13;4.73;;;25.40;99.90;;;;;;4996842;28;20472;-58
2023/07/08 09:51:53;;;;;;;5.43;4.97;;;25.50;99.90;;;;;;4996935;28;20468;-57
2023/07/08 09:54:22;;;;;;;4.10;3.80;;;25.50;99.90;;;;;;4994497;28;21194;-58
2023/07/08 09:56:58;;;;;;;5.00;4.60;;;25.60;99.90;;;;;;4992857;28;20879;-59
2023/07/08 09:59:32;;;;;;;4.97;4.50;;;25.70;99.90;;;;;;4994611;28;21085;-58
2023/07/08 10:02:04;;;;;;;4.37;4.07;;;25.80;99.90;;;;;;4998620;28;20534;-57
2023/07/08 10:04:33;;;;;;;4.33;4.03;;;25.90;99.90;;;;;;5000069;28;20572;-58
2023/07/08 10:07:01;;;;;;;5.00;4.10;;;25.90;99.90;;;;;;4997137;28;20489;-58
2023/07/08 10:09:29;;;;;;;4.20;3.80;;;26.00;99.90;;;;;;4987402;28;20472;-57
2023/07/08 10:12:03;;;;;;;4.47;4.17;;;26.10;99.90;;;;;;4984458;28;20559;-58
2023/07/08 10:14:37;;;;;;;4.10;3.80;;;26.10;99.90;;;;;;4992859;28;20495;-58
2023/07/08 10:17:08;;;;;;;4.50;4.20;;;26.20;99.90;;;;;;4985639;28;20497;-58
2023/07/08 10:19:36;;;;;;;4.40;4.10;;;26.20;99.90;;;;;;4998028;28;20651;-58
2023/07/08 10:22:18;;;;;;;5.07;4.53;;;26.20;99.90;;;;;;4990215;28;20479;-57
2023/07/08 10:25:03;;;;;;;4.60;4.20;;;26.30;99.90;;;;;;4987777;28;20472;-59
2023/07/08 10:27:38;;;;;;;4.70;4.40;;;26.40;99.90;;;;;;4989503;28;20704;-58
2023/07/08 10:30:20;;;;;;;4.37;4.07;;;26.40;99.90;;;;;;4986529;28;20511;-59
2023/07/08 10:33:14;;;;;;;4.77;4.20;;;26.40;99.90;;;;;;4995160;28;20523;-58
2023/07/08 10:36:03;;;;;;;4.70;4.40;;;26.50;99.90;;;;;;4986847;28;20451;-59
2023/07/08 10:38:56;;;;;;;4.60;4.30;;;26.60;99.90;;;;;;4991482;28;20567;-58
2023/07/08 10:41:31;;;;;;;4.37;4.07;;;26.60;99.90;;;;;;4986206;28;20567;-59
2023/07/08 10:44:08;;;;;;;5.30;4.10;;;26.70;99.90;;;;;;4988892;28;20496;-59
2023/07/08 10:46:45;;;;;;;4.83;4.43;;;26.80;99.90;;;;;;4981904;28;20475;-59
2023/07/08 10:49:45;;;;;;;4.87;4.53;;;26.90;99.90;;;;;;4990614;28;20473;-58
2023/07/08 10:52:27;;;;;;;4.83;4.27;;;27.00;96.80;;;;;;4993948;28;20472;-59
2023/07/08 10:55:16;;;;;;;4.70;4.40;;;27.10;99.20;;;;;;4994918;28;20559;-59
2023/07/08 10:57:59;;;;;;;4.90;4.50;;;27.10;99.90;;;;;;4996233;28;20488;-57
2023/07/08 11:00:35;;;;;;;4.70;4.40;;;27.10;99.90;;;;;;4987900;28;20915;-57
2023/07/08 11:03:34;;;;;;;4.90;4.10;;;27.10;99.90;;;;;;4990032;28;20497;-57
2023/07/08 11:06:09;;;;;;;5.37;4.60;;;27.20;99.90;;;;;;4994264;28;20839;-57
2023/07/08 11:08:43;;;;;;;4.20;3.90;;;27.30;99.90;;;;;;4990863;28;20487;-58
2023/07/08 11:11:24;;;;;;;4.90;4.50;;;27.40;99.90;;;;;;4988037;28;20473;-58
2023/07/08 11:13:56;;;;;;;4.37;4.03;;;27.60;99.90;;;;;;4987071;28;20528;-58
2023/07/08 11:16:30;;;;;;;4.00;3.80;;;27.70;99.90;;;;;;4990984;28;20998;-58
2023/07/08 11:19:07;;;;;;;4.40;4.10;;;27.80;94.50;;;;;;4990760;28;20480;-58
2023/07/08 11:21:40;;;;;;;4.00;3.70;;;27.80;98.50;;;;;;4991832;28;20507;-58
2023/07/08 11:24:22;;;;;;;4.87;4.57;;;27.90;89.20;;;;;;4993547;28;20496;-58
2023/07/08 11:26:54;;;;;;;4.80;4.33;;;28.00;98.60;;;;;;4989170;28;20596;-58
2023/07/08 11:29:31;;;;;;;4.50;4.20;;;28.00;94.60;;;;;;4994085;28;20992;-58
2023/07/08 11:31:59;;;;;;;4.60;4.20;;;28.10;93.60;;;;;;4987584;28;20608;-57
2023/07/08 11:34:28;;;;;;;4.30;4.00;;;28.20;92.80;;;;;;4995899;28;20639;-58
2023/07/08 11:36:59;;;;;;;4.40;4.00;;;28.30;77.90;;;;;;4995424;28;20504;-58
2023/07/08 11:39:32;;;;;;;4.40;4.00;;;28.40;77.80;;;;;;4989902;28;20475;-59
2023/07/08 11:42:19;;;;;;;4.03;3.73;;;28.40;85.90;;;;;;4993194;28;20484;-59
2023/07/08 11:44:51;;;;;;;4.57;4.27;;;28.50;88.70;;;;;;4989606;28;22910;-60
2023/07/08 11:47:24;;;;;;;4.20;3.90;;;28.60;91.10;;;;;;4985898;28;20488;-59
2023/07/08 11:49:54;;;;;;;4.17;3.87;;;28.60;94.60;;;;;;4983304;28;20567;-60
2023/07/08 11:52:24;;;;;;;4.30;4.10;;;28.60;93.20;;;;;;4987471;28;20492;-62
2023/07/08 11:55:05;;;;;;;4.90;4.50;;;28.70;91.60;;;;;;4986228;28;20476;-59
2023/07/08 11:57:40;;;;;;;4.40;4.00;;;28.80;82.60;;;;;;4985048;28;20499;-59
2023/07/08 12:00:18;;;;;;;4.70;4.30;;;28.90;74.00;;;;;;4988249;28;20504;-60
2023/07/08 12:02:52;;;;;;;4.27;4.00;;;29.00;79.00;;;;;;4989338;28;20997;-60
2023/07/08 12:05:31;;;;;;;4.90;4.50;;;29.10;84.00;;;;;;4990325;28;21496;-60
2023/07/08 12:08:03;;;;;;;4.47;4.17;;;29.10;86.60;;;;;;4988648;28;20495;-61
2023/07/08 12:10:36;;;;;;;6.27;4.20;;;29.20;89.40;;;;;;4996232;28;20906;-60
2023/07/08 12:13:04;;;;;;;4.20;3.90;;;29.30;80.60;;;;;;4990769;28;20521;-61
2023/07/08 12:15:34;;;;;;;4.70;4.30;;;29.40;79.50;;;;;;4991460;28;20484;-61
2023/07/08 12:18:10;;;;;;;3.97;3.67;;;29.50;78.30;;;;;;4985759;28;20492;-61
2023/07/08 12:20:40;;;;;;;4.87;4.10;;;29.60;82.10;;;;;;4992150;28;20468;-61
2023/07/08 12:23:13;;;;;;;4.23;4.03;;;29.60;76.90;;;;;;4984225;28;21141;-60
2023/07/08 12:25:41;;;;;;;4.17;3.87;;;29.70;70.60;;;;;;4985261;28;20476;-60
2023/07/08 12:28:12;;;;;;;3.93;3.63;;;29.80;76.80;;;;;;4981460;28;20587;-61
2023/07/08 12:30:41;;;;;;;4.40;4.10;;;29.90;75.60;;;;;;4985521;28;20564;-61
2023/07/08 12:33:14;;;;;;;4.23;3.93;;;29.90;74.90;;;;;;4980550;28;20496;-67
2023/07/08 12:35:43;;;;;;;4.30;3.90;;;30.00;72.70;;;;;;4982050;28;20567;-67
2023/07/08 12:38:20;;;;;;;4.17;3.87;;;30.00;73.30;;;;;;4976259;28;20507;-64
2023/07/08 12:40:48;;;;;;;4.47;4.17;;;30.10;74.90;;;;;;4985376;28;20566;-60
2023/07/08 12:43:17;;;;;;;4.60;4.40;;;30.20;74.90;;;;;;4980616;28;20496;-60
2023/07/08 12:45:45;;;;;;;4.23;4.03;;;30.20;66.70;;;;;;4982583;28;20555;-60
2023/07/08 12:48:13;;;;;;;4.37;4.07;;;30.30;68.30;;;;;;4987348;28;20481;-60
2023/07/08 12:50:42;;;;;;;4.40;4.00;;;30.40;60.80;;;;;;4990147;28;20474;-61
2023/07/08 12:53:13;;;;;;;4.37;4.07;;;30.40;63.60;;;;;;4995325;28;20719;-61
2023/07/08 12:55:44;;;;;;;4.50;4.10;;;30.50;62.20;;;;;;5008816;28;20464;-61
2023/07/08 12:58:16;;;;;;;4.10;3.90;;;30.60;57.00;;;;;;5009879;28;20476;-61
2023/07/08 13:00:44;;;;;;;5.00;4.70;;;30.60;61.50;;;;;;4996228;28;20560;-60
2023/07/08 13:03:17;;;;;;;4.90;4.60;;;30.70;54.20;;;;;;4985753;28;20493;-60
2023/07/08 13:05:45;;;;;;;6.90;6.30;;;30.80;58.10;;;;;;4988187;28;20479;-60